Brayton, Nebraska
Current Conditions -  °F | °C
As of 3:15 AM on Friday 19 Dec 2014 (Local Time) from KBVN Reporting Station
Overcast Overcast  
Wind Chill: 22°   Ceiling: 1100
Heat Index: 29°   Visibility: 10mi
Dew Point: 25°   Wind: 8mph
Humidity: 85%   Direction: 210°SSW
Pressure: 30.15"   Gusts: NA
Location:  41.471°N, 98.3757°W
Report Text: KBVN 190915Z AUTO 21007KT 10SM OVC011 M01/M04 A3015 RMK AO2 T10151037
Loading
Personal Weather Stations






























Interactive Weather Map New forecast layout! Learn more

10-Day Weather Forecast

Advertisements
Track Severe Weather on mobile